Weather at Albert Whitted Airport

Public forecast

Using degrees Fahrenheit for public forecast. Weather courtesy of forecast.io.

Current aviation weather report (METAR) for Albert Whitted Airport

Retrieved 2020/10/01 10:53 UTC (15 minutes ago):

KSPG 011053Z 03012KT 10SM SCT030 BKN037 BKN055 23/16 A2999 RMK AO2 SLP156 T02280156

Closest aviation forecast (TAF) to Albert Whitted Airport

Closest forecast is Mac Dill Air Force Base, 7.6 nm (14.0 km) NE. Retrieved 2020/10/01 09:00 UTC (2 hours ago):

TAF TAF KMCF 010900Z 0109/0215 03006KT 9999 BKN030 BKN040 QNH3003INS BECMG 0111/0112 03009KT 9999 SCT040 BKN100 QNH3001INS BECMG 0203/0204 02006KT 9999 SKC QNH3001INS BECMG 0203/0204 02006KT 9999 SKC QNH3001INS TX29/0118Z TN19/0109Z